createdAt,value
2023-04-03T00:01:14.344Z,99552.78
2023-04-03T00:03:42.408Z,99558.94
2023-04-03T00:06:11.598Z,99554.50
2023-04-03T00:08:39.338Z,99559.41
2023-04-03T00:11:07.022Z,99552.38
2023-04-03T00:13:34.861Z,99558.50
2023-04-03T00:16:01.836Z,99556.72
2023-04-03T00:18:28.591Z,99548.94
2023-04-03T00:20:55.130Z,99556.75
2023-04-03T00:23:22.081Z,99553.28
2023-04-03T00:25:48.526Z,99557.72
2023-04-03T00:28:18.079Z,99563.00
2023-04-03T00:30:44.791Z,99564.81
2023-04-03T00:33:15.362Z,99561.50
2023-04-03T00:35:42.764Z,99570.13
2023-04-03T00:38:09.773Z,99570.25
2023-04-03T00:40:42.265Z,99557.19
2023-04-03T00:43:25.313Z,99557.88
2023-04-03T00:45:54.987Z,99556.94
2023-04-03T00:48:30.366Z,99559.50
2023-04-03T00:50:57.847Z,99562.81
2023-04-03T00:53:32.042Z,99559.34
2023-04-03T00:56:01.507Z,99557.63
2023-04-03T00:58:40.880Z,99562.09
2023-04-03T01:01:15.456Z,99556.88
2023-04-03T01:03:42.277Z,99561.13
2023-04-03T01:06:08.866Z,99555.00
2023-04-03T01:08:36.436Z,99559.34
2023-04-03T01:11:02.988Z,99549.97
2023-04-03T01:13:33.809Z,99559.44
2023-04-03T01:16:06.247Z,99554.41
2023-04-03T01:18:35.336Z,99553.38
2023-04-03T01:21:50.245Z,99556.16
2023-04-03T01:24:34.728Z,99552.56
2023-04-03T01:27:06.667Z,99550.78
2023-04-03T01:29:34.087Z,99547.88
2023-04-03T01:32:03.123Z,99553.03
2023-04-03T01:34:31.090Z,99550.38
2023-04-03T01:36:57.606Z,99552.66
2023-04-03T01:39:24.145Z,99557.69
2023-04-03T01:41:51.090Z,99554.75
2023-04-03T01:44:17.662Z,99555.66
2023-04-03T01:46:44.198Z,99553.97
2023-04-03T01:49:10.985Z,99549.41
2023-04-03T01:51:37.591Z,99559.16
2023-04-03T01:54:04.972Z,99550.56
2023-04-03T01:56:31.514Z,99554.81
2023-04-03T01:58:58.019Z,99558.28
2023-04-03T02:01:24.666Z,99565.25
2023-04-03T02:03:51.325Z,99563.59
2023-04-03T02:06:17.968Z,99562.75
2023-04-03T02:08:44.432Z,99561.44
2023-04-03T02:11:10.944Z,99558.25
2023-04-03T02:13:37.471Z,99557.44
2023-04-03T02:16:12.226Z,99555.97
2023-04-03T02:18:39.763Z,99558.03
2023-04-03T02:21:06.605Z,99561.63
2023-04-03T02:23:33.184Z,99550.31
2023-04-03T02:26:12.918Z,99558.50
2023-04-03T02:28:40.558Z,99553.28
2023-04-03T02:31:10.132Z,99553.47
2023-04-03T02:33:37.855Z,99563.06
2023-04-03T02:36:07.685Z,99560.84
2023-04-03T02:38:34.791Z,99558.25
2023-04-03T02:41:11.622Z,99570.47
2023-04-03T02:43:39.235Z,99562.66
2023-04-03T02:46:06.400Z,99569.56
2023-04-03T02:48:33.491Z,99565.25
2023-04-03T02:50:59.996Z,99568.03
2023-04-03T02:53:26.499Z,99576.72
2023-04-03T02:55:52.949Z,99574.97
2023-04-03T02:58:19.465Z,99575.09
2023-04-03T03:00:45.944Z,99576.94
2023-04-03T03:03:14.347Z,99568.34
2023-04-03T03:05:40.808Z,99580.66
2023-04-03T03:08:07.248Z,99588.50
2023-04-03T03:10:33.794Z,99581.59
2023-04-03T03:13:00.343Z,99584.34
2023-04-03T03:15:26.913Z,99581.78
2023-04-03T03:17:53.449Z,99584.47
2023-04-03T03:20:20.244Z,99584.66
2023-04-03T03:22:46.711Z,99589.22
2023-04-03T03:25:13.229Z,99585.94
2023-04-03T03:27:40.657Z,99589.50
2023-04-03T03:30:08.244Z,99587.63
2023-04-03T03:32:34.834Z,99593.69
2023-04-03T03:35:01.373Z,99594.44
2023-04-03T03:37:28.643Z,99595.28
2023-04-03T03:39:55.295Z,99597.03
2023-04-03T03:42:21.788Z,99594.47
2023-04-03T03:44:48.234Z,99591.16
2023-04-03T03:47:14.696Z,99598.16
2023-04-03T03:49:41.782Z,99597.44
2023-04-03T03:52:11.349Z,99598.44
2023-04-03T03:54:38.904Z,99600.97
2023-04-03T03:57:06.019Z,99600.91
2023-04-03T03:59:32.532Z,99606.16
2023-04-03T04:01:59.077Z,99601.84
2023-04-03T04:04:25.674Z,99600.91
2023-04-03T04:06:52.725Z,99606.13
2023-04-03T04:09:19.455Z,99608.66
2023-04-03T04:11:45.999Z,99600.78
2023-04-03T04:14:14.262Z,99611.22
2023-04-03T04:16:40.986Z,99612.16
2023-04-03T04:19:08.874Z,99614.03
2023-04-03T04:21:36.118Z,99610.63
2023-04-03T04:24:02.618Z,99608.06
2023-04-03T04:26:29.114Z,99614.19
2023-04-03T04:28:55.587Z,99609.94
2023-04-03T04:31:22.297Z,99601.22
2023-04-03T04:33:48.768Z,99600.34
2023-04-03T04:36:15.873Z,99604.56
2023-04-03T04:38:43.603Z,99601.16
2023-04-03T04:41:10.085Z,99603.81
2023-04-03T04:43:37.009Z,99609.78
2023-04-03T04:46:08.849Z,99598.56
2023-04-03T04:48:36.420Z,99605.38
2023-04-03T04:51:04.506Z,99602.72
2023-04-03T04:53:31.496Z,99609.66
2023-04-03T04:55:58.001Z,99609.66
2023-04-03T04:58:24.674Z,99609.72
2023-04-03T05:00:51.154Z,99614.06
2023-04-03T05:03:17.664Z,99620.13
2023-04-03T05:05:44.204Z,99625.31
2023-04-03T05:08:10.709Z,99627.13
2023-04-03T05:10:37.353Z,99631.44
2023-04-03T05:13:03.892Z,99627.09
2023-04-03T05:15:30.574Z,99632.25
2023-04-03T05:17:57.048Z,99632.38
2023-04-03T05:20:24.677Z,99641.09
2023-04-03T05:22:51.136Z,99637.66
2023-04-03T05:25:17.622Z,99640.25
2023-04-03T05:27:44.208Z,99645.38
2023-04-03T05:30:11.672Z,99641.09
2023-04-03T05:32:38.272Z,99638.59
2023-04-03T05:35:06.734Z,99643.81
2023-04-03T05:37:33.810Z,99644.56
2023-04-03T05:40:00.649Z,99649.75
2023-04-03T05:42:27.268Z,99652.34
2023-04-03T05:44:53.928Z,99659.19
2023-04-03T05:47:20.571Z,99666.16
2023-04-03T05:49:47.076Z,99661.88
2023-04-03T05:52:37.519Z,99664.59
2023-04-03T05:55:04.966Z,99660.06
2023-04-03T05:57:31.556Z,99663.44
2023-04-03T05:59:58.300Z,99660.75
2023-04-03T06:02:26.744Z,99670.19
2023-04-03T06:04:53.588Z,99668.41
2023-04-03T06:07:28.965Z,99673.69
2023-04-03T06:09:58.061Z,99672.03
2023-04-03T06:12:25.662Z,99669.44
2023-04-03T06:14:52.238Z,99672.88
2023-04-03T06:17:19.288Z,99671.03
2023-04-03T06:19:46.508Z,99679.72
2023-04-03T06:22:13.564Z,99677.16
2023-04-03T06:24:40.354Z,99673.72
2023-04-03T06:27:06.994Z,99679.78
2023-04-03T06:29:33.672Z,99679.78
2023-04-03T06:32:00.399Z,99689.22
2023-04-03T06:34:26.960Z,99694.47
2023-04-03T06:36:53.713Z,99698.72
2023-04-03T06:39:23.623Z,99691.06
2023-04-03T06:41:51.770Z,99692.66
2023-04-03T06:44:18.762Z,99694.38
2023-04-03T06:46:47.426Z,99699.59
2023-04-03T06:49:14.280Z,99704.72
2023-04-03T06:51:40.965Z,99705.41
2023-04-03T06:54:09.198Z,99701.78
2023-04-03T06:56:36.350Z,99699.75
2023-04-03T06:59:03.377Z,99705.88
2023-04-03T07:01:31.180Z,99714.59
2023-04-03T07:03:58.474Z,99717.06
2023-04-03T07:06:27.713Z,99724.94
2023-04-03T07:08:55.962Z,99729.34
2023-04-03T07:11:23.330Z,99726.69
2023-04-03T07:13:50.376Z,99738.63
2023-04-03T07:16:17.006Z,99734.19
2023-04-03T07:18:43.559Z,99736.00
2023-04-03T07:21:10.384Z,99738.72
2023-04-03T07:23:37.426Z,99737.78
2023-04-03T07:26:04.701Z,99734.16
2023-04-03T07:28:31.560Z,99733.13
2023-04-03T07:31:09.464Z,99743.72
2023-04-03T07:33:36.601Z,99745.38
2023-04-03T07:36:03.700Z,99746.09
2023-04-03T07:38:30.280Z,99745.09
2023-04-03T07:40:56.715Z,99747.59
2023-04-03T07:43:25.585Z,99753.06
2023-04-03T07:45:53.102Z,99749.50
2023-04-03T07:48:22.712Z,99756.47
2023-04-03T07:50:49.891Z,99752.56
2023-04-03T07:53:16.935Z,99756.00
2023-04-03T07:55:44.075Z,99755.91
2023-04-03T07:58:18.165Z,99755.91
2023-04-03T08:00:45.911Z,99758.47
2023-04-03T08:03:13.756Z,99760.22
2023-04-03T08:05:43.850Z,99756.78
2023-04-03T08:08:14.405Z,99754.97
2023-04-03T08:10:41.541Z,99758.53
2023-04-03T08:13:09.501Z,99753.34
2023-04-03T08:15:36.918Z,99763.63
2023-04-03T08:18:04.434Z,99762.63
2023-04-03T08:20:31.168Z,99764.28
2023-04-03T08:22:57.803Z,99763.25
2023-04-03T08:25:24.550Z,99759.66
2023-04-03T08:27:51.038Z,99761.34
2023-04-03T08:30:18.272Z,99766.63
2023-04-03T08:32:45.458Z,99766.41
2023-04-03T08:35:13.298Z,99771.66
2023-04-03T08:37:40.843Z,99758.56
2023-04-03T08:40:14.301Z,99759.38
2023-04-03T08:43:00.988Z,99764.91
2023-04-03T08:45:51.292Z,99766.56
2023-04-03T08:48:28.759Z,99759.25
2023-04-03T08:51:03.615Z,99771.25
2023-04-03T08:53:37.056Z,99767.84
2023-04-03T08:56:10.590Z,99774.16
2023-04-03T08:58:53.796Z,99777.63
2023-04-03T09:01:29.216Z,99771.31
2023-04-03T09:03:56.034Z,99776.41
2023-04-03T09:06:32.395Z,99779.00
2023-04-03T09:09:11.632Z,99771.19
2023-04-03T09:12:24.910Z,99774.16
2023-04-03T09:15:10.002Z,99776.53
2023-04-03T09:17:54.299Z,99782.53
2023-04-03T09:20:47.040Z,99774.59
2023-04-03T09:23:28.936Z,99767.22
2023-04-03T09:26:06.367Z,99760.84
2023-04-03T09:28:49.324Z,99781.31
2023-04-03T09:31:25.804Z,99774.16
2023-04-03T09:34:03.307Z,99770.94
2023-04-03T09:37:06.873Z,99773.13
2023-04-03T09:39:54.397Z,99764.75
2023-04-03T09:42:27.290Z,99770.47
2023-04-03T09:44:58.298Z,99769.97
2023-04-03T09:47:30.901Z,99770.16
2023-04-03T09:50:30.325Z,99764.94
2023-04-03T09:52:57.043Z,99755.06
2023-04-03T09:55:30.258Z,99748.66
2023-04-03T09:58:22.965Z,99747.47
2023-04-03T10:01:00.496Z,99747.31
2023-04-03T10:03:36.432Z,99740.09
2023-04-03T10:06:05.554Z,99740.25
2023-04-03T10:08:35.737Z,99758.06
2023-04-03T10:11:19.785Z,99746.84
2023-04-03T10:14:00.191Z,99747.03
2023-04-03T10:16:53.560Z,99742.22
2023-04-03T10:19:36.858Z,99745.78
2023-04-03T10:22:15.436Z,99739.81
2023-04-03T10:25:05.495Z,99744.69
2023-04-03T10:27:45.875Z,99733.69
2023-04-03T10:30:49.322Z,99727.47
2023-04-03T10:33:42.851Z,99730.09
2023-04-03T10:36:38.160Z,99720.97
2023-04-03T10:39:52.204Z,99719.78
2023-04-03T10:42:33.741Z,99714.16
2023-04-03T10:45:12.402Z,99714.59
2023-04-03T10:47:46.788Z,99727.81
2023-04-03T10:50:44.263Z,99724.19
2023-04-03T10:53:36.394Z,99729.94
2023-04-03T10:56:46.696Z,99713.34
2023-04-03T10:59:17.140Z,99713.81
2023-04-03T11:01:48.941Z,99712.91
2023-04-03T11:04:22.136Z,99710.25
2023-04-03T11:07:01.096Z,99699.44
2023-04-03T11:09:34.216Z,99699.88
2023-04-03T11:12:14.005Z,99695.72
2023-04-03T11:14:41.868Z,99696.06
2023-04-03T11:17:21.226Z,99700.94
2023-04-03T11:20:28.205Z,99712.75
2023-04-03T11:23:20.952Z,99688.13
2023-04-03T11:25:54.243Z,99680.13
2023-04-03T11:28:21.424Z,99690.88
2023-04-03T11:31:19.583Z,99695.25
2023-04-03T11:33:56.803Z,99688.25
2023-04-03T11:36:34.613Z,99690.66
2023-04-03T11:39:31.565Z,99683.03
2023-04-03T11:42:17.635Z,99675.91
2023-04-03T11:44:44.246Z,99681.53
2023-04-03T11:47:13.204Z,99675.66
2023-04-03T11:50:00.315Z,99670.56
2023-04-03T11:52:40.403Z,99671.31
2023-04-03T11:55:21.603Z,99680.06
2023-04-03T11:58:00.343Z,99674.84
2023-04-03T12:00:47.725Z,99666.50
2023-04-03T12:03:32.381Z,99669.72
2023-04-03T12:06:08.117Z,99661.00
2023-04-03T12:08:34.673Z,99668.34
2023-04-03T12:11:09.889Z,99659.25
2023-04-03T12:13:43.361Z,99653.84
2023-04-03T12:16:49.468Z,99651.41
2023-04-03T12:19:26.522Z,99643.59
2023-04-03T12:22:13.020Z,99641.91
2023-04-03T12:24:44.744Z,99647.81
2023-04-03T12:27:42.865Z,99638.59
2023-04-03T12:30:31.456Z,99640.84
2023-04-03T12:33:32.675Z,99627.00
2023-04-03T12:36:17.590Z,99637.69
2023-04-03T12:39:06.020Z,99630.38
2023-04-03T12:41:40.694Z,99639.38
2023-04-03T12:45:13.682Z,99636.53
2023-04-03T12:47:49.132Z,99619.06
2023-04-03T12:50:24.975Z,99622.66
2023-04-03T12:53:04.806Z,99622.22
2023-04-03T12:55:31.727Z,99612.06
2023-04-03T12:57:58.516Z,99617.09
2023-04-03T13:00:39.766Z,99608.66
2023-04-03T13:03:25.271Z,99597.28
2023-04-03T13:05:52.028Z,99606.63
2023-04-03T13:08:20.892Z,99593.78
2023-04-03T13:11:03.811Z,99597.06
2023-04-03T13:13:36.087Z,99598.09
2023-04-03T13:16:11.452Z,99592.59
2023-04-03T13:18:39.417Z,99591.56
2023-04-03T13:21:14.574Z,99598.78
2023-04-03T13:23:51.551Z,99589.75
2023-04-03T13:26:24.015Z,99601.47
2023-04-03T13:28:52.628Z,99594.13
2023-04-03T13:31:54.991Z,99583.28
2023-04-03T13:34:24.675Z,99584.00
2023-04-03T13:36:52.130Z,99576.84
2023-04-03T13:39:26.025Z,99570.97
2023-04-03T13:41:57.854Z,99573.84
2023-04-03T13:44:24.205Z,99578.91
2023-04-03T13:46:54.347Z,99576.16
2023-04-03T13:49:28.222Z,99581.78
2023-04-03T13:52:06.766Z,99568.91
2023-04-03T13:54:39.417Z,99566.41
2023-04-03T13:57:15.983Z,99571.63
2023-04-03T13:59:44.067Z,99568.78
2023-04-03T14:02:31.880Z,99555.78
2023-04-03T14:05:02.699Z,99560.38
2023-04-03T14:07:32.149Z,99554.50
2023-04-03T14:09:59.500Z,99557.91
2023-04-03T14:12:38.150Z,99546.75
2023-04-03T14:15:17.607Z,99549.59
2023-04-03T14:17:44.508Z,99555.69
2023-04-03T14:20:18.094Z,99559.38
2023-04-03T14:22:45.290Z,99542.59
2023-04-03T14:25:12.240Z,99540.91
2023-04-03T14:27:46.380Z,99543.81
2023-04-03T14:30:34.892Z,99547.00
2023-04-03T14:33:01.819Z,99543.69
2023-04-03T14:35:29.098Z,99545.13
2023-04-03T14:37:56.406Z,99540.72
2023-04-03T14:40:27.954Z,99536.00
2023-04-03T14:42:56.400Z,99536.78
2023-04-03T14:45:24.634Z,99542.16
2023-04-03T14:47:56.069Z,99545.59
2023-04-03T14:50:27.495Z,99540.47
2023-04-03T14:52:59.586Z,99538.88
2023-04-03T14:55:27.570Z,99532.59
2023-04-03T14:57:54.955Z,99531.88
2023-04-03T15:00:23.043Z,99532.63
2023-04-03T15:02:50.176Z,99525.38
2023-04-03T15:05:17.687Z,99517.28
2023-04-03T15:07:51.604Z,99532.31
2023-04-03T15:10:28.591Z,99523.38
2023-04-03T15:12:56.682Z,99517.50
2023-04-03T15:15:25.200Z,99506.69
2023-04-03T15:17:55.937Z,99515.88
2023-04-03T15:20:27.205Z,99518.84
2023-04-03T15:22:54.464Z,99518.13
2023-04-03T15:25:21.054Z,99526.38
2023-04-03T15:27:47.853Z,99513.47
2023-04-03T15:30:19.162Z,99525.28
2023-04-03T15:32:46.694Z,99527.34
2023-04-03T15:35:13.271Z,99515.44
2023-04-03T15:37:39.821Z,99514.63
2023-04-03T15:40:07.903Z,99514.25
2023-04-03T15:42:34.912Z,99517.22
2023-04-03T15:45:01.800Z,99517.28
2023-04-03T15:47:29.000Z,99518.47
2023-04-03T15:49:56.525Z,99513.22
2023-04-03T15:52:23.385Z,99517.47
2023-04-03T15:54:50.242Z,99515.00
2023-04-03T15:57:17.003Z,99508.56
2023-04-03T15:59:43.544Z,99508.81
2023-04-03T16:02:13.742Z,99512.09
2023-04-03T16:04:41.249Z,99512.63
2023-04-03T16:07:07.840Z,99524.28
2023-04-03T16:09:36.808Z,99517.59
2023-04-03T16:12:04.185Z,99537.50
2023-04-03T16:14:31.377Z,99535.25
2023-04-03T16:16:59.966Z,99543.56
2023-04-03T16:19:26.796Z,99545.19
2023-04-03T16:21:56.136Z,99539.34
2023-04-03T16:24:23.217Z,99541.69
2023-04-03T16:26:49.729Z,99545.88
2023-04-03T16:29:16.297Z,99551.16
2023-04-03T16:31:43.238Z,99550.88
2023-04-03T16:34:09.810Z,99550.97
2023-04-03T16:36:38.339Z,99545.25
2023-04-03T16:39:05.560Z,99552.50
2023-04-03T16:41:32.039Z,99547.63
2023-04-03T16:43:58.569Z,99545.84
2023-04-03T16:46:25.306Z,99546.31
2023-04-03T16:48:51.865Z,99543.44
2023-04-03T16:51:18.432Z,99547.53
2023-04-03T16:53:45.009Z,99542.75
2023-04-03T16:56:11.523Z,99538.09
2023-04-03T16:58:38.059Z,99539.47
2023-04-03T17:01:17.328Z,99549.19
2023-04-03T17:03:44.391Z,99550.94
2023-04-03T17:06:17.347Z,99557.31
2023-04-03T17:08:46.573Z,99551.59
2023-04-03T17:11:13.466Z,99552.75
2023-04-03T17:13:40.270Z,99553.78
2023-04-03T17:16:11.801Z,99548.22
2023-04-03T17:18:38.483Z,99553.91
2023-04-03T17:21:06.197Z,99548.00
2023-04-03T17:23:35.724Z,99556.22
2023-04-03T17:26:05.387Z,99558.88
2023-04-03T17:28:32.240Z,99569.66
2023-04-03T17:31:01.909Z,99567.31
2023-04-03T17:33:32.873Z,99572.34
2023-04-03T17:36:05.053Z,99567.84
2023-04-03T17:38:33.744Z,99572.06
2023-04-03T17:41:06.164Z,99567.06
2023-04-03T17:43:33.173Z,99566.34
2023-04-03T17:46:08.897Z,99568.81
2023-04-03T17:48:38.783Z,99569.25
2023-04-03T17:51:12.823Z,99567.88
2023-04-03T17:53:40.213Z,99574.81
2023-04-03T17:56:12.157Z,99579.63
2023-04-03T17:58:38.739Z,99579.28
2023-04-03T18:01:15.425Z,99583.59
2023-04-03T18:03:42.618Z,99581.94
2023-04-03T18:06:12.585Z,99580.78
2023-04-03T18:08:46.072Z,99581.84
2023-04-03T18:11:13.737Z,99580.97
2023-04-03T18:13:40.502Z,99580.69
2023-04-03T18:16:09.807Z,99587.22
2023-04-03T18:18:36.743Z,99586.69
2023-04-03T18:21:04.711Z,99590.41
2023-04-03T18:23:35.662Z,99593.41
2023-04-03T18:26:04.647Z,99589.19
2023-04-03T18:28:32.304Z,99599.66
2023-04-03T18:31:01.703Z,99601.44
2023-04-03T18:33:28.447Z,99601.56
2023-04-03T18:35:54.993Z,99598.31
2023-04-03T18:38:21.447Z,99601.09
2023-04-03T18:40:49.971Z,99602.09
2023-04-03T18:43:16.726Z,99595.31
2023-04-03T18:45:43.408Z,99611.16
2023-04-03T18:48:10.240Z,99607.00
2023-04-03T18:50:36.856Z,99608.03
2023-04-03T18:53:03.463Z,99609.50
2023-04-03T18:55:30.935Z,99610.63
2023-04-03T18:57:57.784Z,99615.00
2023-04-03T19:00:24.340Z,99619.69
2023-04-03T19:02:51.212Z,99623.38
2023-04-03T19:05:19.637Z,99622.59
2023-04-03T19:07:48.279Z,99622.81
2023-04-03T19:10:17.403Z,99622.09
2023-04-03T19:12:45.359Z,99621.41
2023-04-03T19:15:14.158Z,99621.69
2023-04-03T19:17:41.593Z,99620.38
2023-04-03T19:20:10.806Z,99626.53
2023-04-03T19:22:38.017Z,99628.28
2023-04-03T19:25:06.535Z,99624.75
2023-04-03T19:27:34.416Z,99630.06
2023-04-03T19:30:00.977Z,99623.13
2023-04-03T19:32:27.559Z,99635.34
2023-04-03T19:34:54.118Z,99632.09
2023-04-03T19:37:20.728Z,99631.47
2023-04-03T19:39:47.240Z,99632.66
2023-04-03T19:42:13.787Z,99631.09
2023-04-03T19:44:40.384Z,99631.22
2023-04-03T19:47:06.891Z,99635.78
2023-04-03T19:49:33.359Z,99637.09
2023-04-03T19:51:59.868Z,99640.09
2023-04-03T19:54:26.366Z,99635.31
2023-04-03T19:56:53.031Z,99634.59
2023-04-03T19:59:19.545Z,99642.50
2023-04-03T20:01:46.444Z,99637.69
2023-04-03T20:04:14.302Z,99641.19
2023-04-03T20:06:40.926Z,99642.19
2023-04-03T20:09:07.707Z,99642.19
2023-04-03T20:11:36.877Z,99648.34
2023-04-03T20:14:04.338Z,99644.88
2023-04-03T20:16:30.926Z,99644.00
2023-04-03T20:18:57.593Z,99644.94
2023-04-03T20:21:29.976Z,99639.16
2023-04-03T20:23:56.605Z,99638.34
2023-04-03T20:26:27.229Z,99641.88
2023-04-03T20:28:57.398Z,99639.25
2023-04-03T20:31:26.754Z,99646.78
2023-04-03T20:33:53.521Z,99632.22
2023-04-03T20:36:23.301Z,99635.63
2023-04-03T20:38:52.207Z,99626.06
2023-04-03T20:41:18.886Z,99628.66
2023-04-03T20:43:46.220Z,99636.53
2023-04-03T20:46:14.029Z,99630.47
2023-04-03T20:48:41.487Z,99628.03
2023-04-03T20:51:13.626Z,99628.22
2023-04-03T20:53:40.433Z,99627.66
2023-04-03T20:56:09.006Z,99629.41
2023-04-03T20:58:41.192Z,99630.19
2023-04-03T21:01:22.794Z,99630.63
2023-04-03T21:03:54.649Z,99632.19
2023-04-03T21:07:18.282Z,99626.13
2023-04-03T21:10:41.488Z,99630.56
2023-04-03T21:14:05.424Z,99627.97
2023-04-03T21:16:32.715Z,99628.91
2023-04-03T21:19:15.768Z,99622.22
2023-04-03T21:21:45.595Z,99621.38
2023-04-03T21:24:16.091Z,99625.94
2023-04-03T21:26:44.147Z,99621.53
2023-04-03T21:29:11.430Z,99621.63
2023-04-03T21:31:58.881Z,99617.50
2023-04-03T21:34:28.436Z,99619.97
2023-04-03T21:37:03.547Z,99619.97
2023-04-03T21:39:30.555Z,99619.84
2023-04-03T21:41:57.172Z,99614.56
2023-04-03T21:44:24.808Z,99617.88
2023-04-03T21:46:54.611Z,99617.97
2023-04-03T21:49:25.343Z,99618.94
2023-04-03T21:51:52.460Z,99617.16
2023-04-03T21:54:19.722Z,99617.25
2023-04-03T21:56:48.056Z,99617.53
2023-04-03T21:59:15.061Z,99617.41
2023-04-03T22:01:41.928Z,99619.03
2023-04-03T22:04:08.461Z,99616.50
2023-04-03T22:06:36.769Z,99619.16
2023-04-03T22:09:03.972Z,99622.63
2023-04-03T22:11:30.581Z,99612.16
2023-04-03T22:13:57.095Z,99617.41
2023-04-03T22:16:23.978Z,99609.78
2023-04-03T22:18:56.159Z,99617.69
2023-04-03T22:21:23.224Z,99620.44
2023-04-03T22:23:49.732Z,99620.41
2023-04-03T22:26:16.385Z,99614.19
2023-04-03T22:28:46.233Z,99617.72
2023-04-03T22:31:14.762Z,99623.06
2023-04-03T22:33:43.535Z,99619.00
2023-04-03T22:36:12.177Z,99614.81
2023-04-03T22:38:39.802Z,99620.84
2023-04-03T22:41:08.081Z,99618.00
2023-04-03T22:43:37.375Z,99611.06
2023-04-03T22:46:10.157Z,99612.75
2023-04-03T22:48:43.202Z,99607.56
2023-04-03T22:51:09.935Z,99604.94
2023-04-03T22:53:37.635Z,99606.72
2023-04-03T22:56:13.885Z,99603.25
2023-04-03T22:58:40.557Z,99601.53
2023-04-03T23:01:14.934Z,99605.03
2023-04-03T23:03:42.807Z,99597.13
2023-04-03T23:06:10.799Z,99599.81
2023-04-03T23:08:41.902Z,99598.19
2023-04-03T23:11:09.590Z,99591.31
2023-04-03T23:13:36.916Z,99594.03
2023-04-03T23:16:04.319Z,99591.44
2023-04-03T23:18:39.313Z,99588.91
2023-04-03T23:21:09.176Z,99589.03
2023-04-03T23:23:35.928Z,99589.97
2023-04-03T23:26:02.767Z,99588.22
2023-04-03T23:28:29.872Z,99593.53
2023-04-03T23:31:06.957Z,99596.22
2023-04-03T23:33:34.097Z,99586.56
2023-04-03T23:36:07.245Z,99602.22
2023-04-03T23:38:34.886Z,99593.75
2023-04-03T23:41:01.463Z,99593.75
2023-04-03T23:43:28.770Z,99600.69
2023-04-03T23:45:55.294Z,99598.94
2023-04-03T23:48:21.864Z,99596.34
2023-04-03T23:50:48.348Z,99598.91
2023-04-03T23:53:14.851Z,99595.44
2023-04-03T23:55:41.983Z,99598.06
2023-04-03T23:58:08.684Z,99594.44
